Time;durP1;ratioP1;P1;durP2;ratioP2;P2;SDS_P1;SDS_P2;PMS_P1;PMS_P2;Temp;Humidity;BMP_temperature;BMP_pressure;BME280_temperature;BME280_humidity;BME280_pressure;Samples;Min_cycle;Max_cycle;Signal;HPM_P1;HPM_P2
2021/04/04 00:00:22;;;;;;;3.70;2.90;;;;;;;10.59;71.21;99181.97;5029172;28;20030;-51
2021/04/04 00:02:47;;;;;;;3.13;2.53;;;;;;;10.49;70.91;99189.59;5043744;28;20032;-49
2021/04/04 00:05:13;;;;;;;3.20;2.60;;;;;;;10.82;70.25;99188.53;5034858;28;20029;-49
2021/04/04 00:07:39;;;;;;;5.30;2.85;;;;;;;10.96;68.98;99188.19;5047958;28;20460;-49
2021/04/04 00:10:06;;;;;;;3.88;2.40;;;;;;;10.73;69.21;99191.47;5049227;28;20020;-49
2021/04/04 00:12:31;;;;;;;3.30;2.33;;;;;;;10.80;69.17;99182.63;5049058;28;20037;-49
2021/04/04 00:14:56;;;;;;;3.70;2.70;;;;;;;10.81;69.79;99186.91;5049026;28;20082;-51
2021/04/04 00:17:22;;;;;;;4.10;2.47;;;;;;;10.47;70.09;99200.50;5049136;28;20025;-50
2021/04/04 00:19:47;;;;;;;3.88;2.80;;;;;;;10.73;69.26;99202.09;5049038;28;20029;-48
2021/04/04 00:22:13;;;;;;;4.63;2.78;;;;;;;10.65;68.90;99209.56;5048908;28;20032;-49
2021/04/04 00:24:38;;;;;;;4.20;3.33;;;;;;;10.49;68.87;99206.41;5049214;28;20563;-49
2021/04/04 00:27:04;;;;;;;4.88;3.40;;;;;;;10.21;69.41;99206.75;5052694;28;20600;-51
2021/04/04 00:29:29;;;;;;;5.10;3.33;;;;;;;10.50;68.54;99210.69;5052289;28;20116;-51
2021/04/04 00:31:55;;;;;;;4.53;3.30;;;;;;;10.49;68.18;99217.06;5052408;28;20388;-49
2021/04/04 00:34:21;;;;;;;4.90;3.60;;;;;;;10.68;67.99;99219.75;5052695;28;20135;-49
2021/04/04 00:36:47;;;;;;;4.30;3.30;;;;;;;10.51;68.14;99208.84;5052610;28;20126;-48
2021/04/04 00:39:13;;;;;;;4.32;3.42;;;;;;;10.37;69.22;99208.91;5052606;28;20021;-49
2021/04/04 00:41:39;;;;;;;4.60;3.47;;;;;;;10.56;68.93;99209.81;5052516;28;20025;-48
2021/04/04 00:44:04;;;;;;;4.63;3.50;;;;;;;10.59;68.68;99216.56;5052410;28;20115;-52
2021/04/04 00:46:30;;;;;;;4.78;3.72;;;;;;;10.68;69.71;99206.44;5052421;28;20017;-49
2021/04/04 00:48:55;;;;;;;5.57;3.40;;;;;;;10.46;71.35;99214.81;5052821;28;20036;-51
2021/04/04 00:51:21;;;;;;;6.40;3.50;;;;;;;10.57;70.47;99216.78;5052683;28;20079;-53
2021/04/04 00:53:47;;;;;;;5.63;3.70;;;;;;;10.65;71.15;99230.84;5052520;28;20039;-51
2021/04/04 00:56:12;;;;;;;4.70;3.63;;;;;;;10.20;73.39;99231.72;5051065;28;20078;-49
2021/04/04 00:58:38;;;;;;;4.70;3.67;;;;;;;10.11;73.88;99236.47;5052497;28;20027;-52
2021/04/04 01:01:03;;;;;;;5.68;3.83;;;;;;;10.05;74.74;99237.34;5052327;28;20487;-49
2021/04/04 01:03:29;;;;;;;4.88;3.80;;;;;;;9.81;75.29;99232.75;5052540;28;20017;-49
2021/04/04 01:05:55;;;;;;;5.00;3.70;;;;;;;9.57;76.04;99233.22;5052444;28;20029;-48
2021/04/04 01:08:21;;;;;;;5.30;4.00;;;;;;;9.62;76.54;99234.44;5052217;28;20547;-51
2021/04/04 01:10:46;;;;;;;6.40;4.35;;;;;;;9.54;76.49;99238.16;5052184;28;20017;-49
2021/04/04 01:13:30;;;;;;;5.97;4.20;;;;;;;9.68;75.99;99237.06;5051393;28;20071;-49
2021/04/04 01:16:15;;;;;;;6.93;4.20;;;;;;;9.66;75.27;99225.03;5052684;28;20021;-52
2021/04/04 01:18:50;;;;;;;5.38;3.67;;;;;;;9.63;74.84;99230.75;5052868;28;20028;-48
2021/04/04 01:21:20;;;;;;;7.10;4.10;;;;;;;9.50;75.85;99250.19;5035062;28;20029;-51
2021/04/04 01:24:20;;;;;;;5.22;3.92;;;;;;;9.50;75.34;99247.53;5051343;28;20437;-49
2021/04/04 01:27:16;;;;;;;5.25;3.55;;;;;;;9.19;76.66;99249.03;5052561;28;20019;-49
2021/04/04 01:29:41;;;;;;;4.80;3.90;;;;;;;9.28;76.45;99253.09;5052455;28;20433;-51
2021/04/04 01:32:07;;;;;;;6.15;3.85;;;;;;;9.47;75.87;99251.44;5034568;28;20028;-50
2021/04/04 01:34:32;;;;;;;5.05;3.45;;;;;;;9.67;75.86;99245.25;5050935;28;20469;-51
2021/04/04 01:37:00;;;;;;;4.78;3.70;;;;;;;9.53;75.66;99257.75;5034077;28;20032;-49
2021/04/04 01:39:27;;;;;;;3.90;3.00;;;;;;;9.52;75.43;99256.09;5052533;28;20033;-50
2021/04/04 01:41:52;;;;;;;3.53;2.80;;;;;;;9.16;75.94;99246.81;5052294;28;20483;-51
2021/04/04 01:44:19;;;;;;;3.28;2.45;;;;;;;9.19;75.79;99262.31;5051026;28;20025;-49
2021/04/04 01:46:45;;;;;;;3.72;2.13;;;;;;;9.06;75.65;99268.44;5052238;28;20099;-50
2021/04/04 01:49:11;;;;;;;2.70;1.80;;;;;;;8.97;75.57;99259.06;5051089;28;20406;-48
2021/04/04 01:51:37;;;;;;;2.67;1.63;;;;;;;9.04;74.72;99254.53;5051976;28;20172;-52
2021/04/04 01:54:04;;;;;;;2.55;1.60;;;;;;;9.12;74.99;99262.31;5034337;28;20028;-49
2021/04/04 01:56:29;;;;;;;1.80;1.38;;;;;;;9.07;73.99;99270.06;5052189;28;20028;-51
2021/04/04 01:58:55;;;;;;;1.80;1.52;;;;;;;9.01;74.15;99265.59;5051062;28;20385;-52
2021/04/04 02:01:21;;;;;;;1.85;1.40;;;;;;;8.73;73.72;99197.63;5050570;28;20033;-53
2021/04/04 02:03:46;;;;;;;1.80;1.40;;;;;;;9.16;73.94;99262.72;5050700;28;20021;-51
2021/04/04 02:06:12;;;;;;;1.92;1.40;;;;;;;8.94;74.04;99262.13;5034086;28;20029;-52
2021/04/04 02:08:37;;;;;;;1.80;1.15;;;;;;;8.78;74.31;99258.03;5051267;28;20044;-50
2021/04/04 02:11:03;;;;;;;2.08;1.20;;;;;;;8.91;73.53;99271.31;5033651;28;20025;-48
2021/04/04 02:13:28;;;;;;;1.27;1.10;;;;;;;8.80;73.96;99270.06;5049958;28;20132;-49
2021/04/04 02:16:01;;;;;;;2.42;1.42;;;;;;;8.78;73.63;99261.50;5050313;28;20024;-50
2021/04/04 02:18:26;;;;;;;1.80;1.40;;;;;;;8.84;73.09;99261.72;5050469;28;20020;-48
2021/04/04 02:20:57;;;;;;;2.13;1.40;;;;;;;8.89;73.67;99262.75;5050134;28;20028;-50
2021/04/04 02:23:23;;;;;;;1.75;1.20;;;;;;;9.00;72.89;99258.63;5051642;28;20020;-48
2021/04/04 02:25:52;;;;;;;1.55;1.30;;;;;;;8.90;72.40;99258.25;5050262;28;20044;-49
2021/04/04 02:28:17;;;;;;;1.88;1.60;;;;;;;9.02;72.39;99271.72;5033729;28;20028;-49
2021/04/04 02:30:43;;;;;;;3.00;1.30;;;;;;;8.78;73.02;99261.50;5051522;28;20534;-48
2021/04/04 02:33:15;;;;;;;2.55;1.60;;;;;;;8.93;72.72;99268.44;5049941;28;20357;-48
2021/04/04 02:35:42;;;;;;;3.28;1.40;;;;;;;8.86;73.10;99270.28;5050044;28;20029;-50
2021/04/04 02:38:21;;;;;;;1.48;1.20;;;;;;;8.61;73.47;99266.38;5051462;28;20035;-48
2021/04/04 02:40:47;;;;;;;1.80;1.38;;;;;;;8.51;73.08;99254.53;5051280;28;20423;-50
2021/04/04 02:43:18;;;;;;;1.30;1.13;;;;;;;8.64;72.92;99259.84;5033370;28;20048;-49
2021/04/04 02:45:43;;;;;;;1.58;1.10;;;;;;;8.79;73.12;99268.44;5033796;28;20104;-49
2021/04/04 02:48:10;;;;;;;1.75;1.40;;;;;;;8.76;72.69;99268.84;5050261;28;20127;-49
2021/04/04 02:50:35;;;;;;;1.65;1.48;;;;;;;8.92;72.18;99274.78;5033204;28;20027;-49
2021/04/04 02:53:01;;;;;;;2.92;1.40;;;;;;;8.75;72.52;99266.41;5032956;28;20041;-48
2021/04/04 02:55:32;;;;;;;1.58;1.42;;;;;;;9.06;70.76;99259.66;5049475;28;20082;-49
2021/04/04 02:57:58;;;;;;;1.80;1.30;;;;;;;8.89;72.09;99265.41;5049516;28;20021;-48
2021/04/04 03:00:23;;;;;;;2.45;1.60;;;;;;;8.82;72.15;99269.06;5049233;28;20032;-50
2021/04/04 03:02:50;;;;;;;2.45;1.83;;;;;;;8.78;71.76;99260.69;5050943;28;20071;-49
2021/04/04 03:05:16;;;;;;;1.90;1.40;;;;;;;8.66;72.02;99246.38;5050976;28;20107;-49
2021/04/04 03:07:42;;;;;;;4.20;1.60;;;;;;;8.86;72.06;99262.34;5032756;28;20056;-48
2021/04/04 03:10:08;;;;;;;3.42;2.00;;;;;;;8.54;72.47;99252.28;5032610;28;20029;-51
2021/04/04 03:12:34;;;;;;;2.47;1.80;;;;;;;8.39;73.04;99256.94;5032691;28;20091;-51
2021/04/04 03:15:01;;;;;;;2.75;2.00;;;;;;;8.58;72.39;99261.47;5032842;28;20020;-48
2021/04/04 03:17:26;;;;;;;2.35;1.83;;;;;;;8.57;71.70;99265.16;5049616;28;20031;-51
2021/04/04 03:19:52;;;;;;;4.32;2.03;;;;;;;8.38;72.18;99272.03;5032508;28;20024;-49
2021/04/04 03:22:17;;;;;;;2.75;2.10;;;;;;;8.50;72.37;99266.97;5032582;28;20025;-49
2021/04/04 03:24:43;;;;;;;2.30;1.80;;;;;;;8.63;72.06;99270.69;5032638;28;20416;-49
2021/04/04 03:27:08;;;;;;;3.30;2.05;;;;;;;8.67;70.85;99274.56;5048964;28;20029;-48
2021/04/04 03:29:34;;;;;;;3.05;1.98;;;;;;;8.83;71.09;99287.41;5050536;28;20024;-48
2021/04/04 03:32:00;;;;;;;3.88;2.10;;;;;;;8.82;70.72;99287.63;5032247;28;20028;-48
2021/04/04 03:34:25;;;;;;;2.95;2.20;;;;;;;8.56;71.14;99287.38;5032244;28;20021;-51
2021/04/04 03:36:52;;;;;;;2.75;2.13;;;;;;;8.85;70.05;99292.53;5049008;28;20048;-50
2021/04/04 03:39:17;;;;;;;3.20;2.17;;;;;;;8.89;70.08;99291.94;5050131;28;20029;-48
2021/04/04 03:41:43;;;;;;;3.00;2.15;;;;;;;8.80;69.63;99303.75;5032465;28;20110;-48
2021/04/04 03:44:08;;;;;;;3.50;2.08;;;;;;;8.67;69.54;99301.09;5050327;28;20135;-52
2021/04/04 03:46:34;;;;;;;3.53;2.22;;;;;;;8.87;68.62;99307.25;5032292;28;20045;-48
2021/04/04 03:48:59;;;;;;;3.45;2.30;;;;;;;8.84;67.83;99312.94;5032376;28;20032;-51
2021/04/04 03:51:25;;;;;;;3.35;2.35;;;;;;;8.87;68.87;99309.91;5032073;28;20155;-49
2021/04/04 03:53:52;;;;;;;2.45;2.00;;;;;;;8.82;68.61;99312.34;5048516;28;20426;-47
2021/04/04 03:56:31;;;;;;;2.85;2.28;;;;;;;8.72;69.08;99315.38;5049947;28;20120;-51
2021/04/04 03:58:58;;;;;;;2.88;2.35;;;;;;;8.79;68.68;99318.03;5049778;28;20021;-50
2021/04/04 04:01:25;;;;;;;2.97;2.13;;;;;;;8.90;67.80;99317.44;5052713;28;20036;-49
2021/04/04 04:03:51;;;;;;;2.63;2.13;;;;;;;8.69;67.72;99309.66;5035982;28;20036;-49
2021/04/04 04:06:17;;;;;;;3.13;2.30;;;;;;;8.84;68.18;99328.06;5052575;28;20025;-47
2021/04/04 04:08:42;;;;;;;3.17;2.22;;;;;;;8.88;66.98;99330.09;5053702;28;20053;-48
2021/04/04 04:11:08;;;;;;;3.38;2.50;;;;;;;9.03;67.05;99324.59;5036092;28;20025;-48
2021/04/04 04:13:35;;;;;;;3.38;2.42;;;;;;;9.06;66.66;99326.81;5053978;28;20021;-50
2021/04/04 04:16:00;;;;;;;3.60;2.60;;;;;;;9.08;66.36;99329.28;5052492;28;20029;-53
2021/04/04 04:18:26;;;;;;;11.38;7.88;;;;;;;9.10;66.56;99332.53;5023158;28;20500;-51
2021/04/04 04:20:51;;;;;;;46.75;25.15;;;;;;;9.20;67.22;99327.66;5032386;28;20029;-51
2021/04/04 04:23:17;;;;;;;13.00;7.03;;;;;;;9.07;67.82;99333.78;5033957;28;20099;-50
2021/04/04 04:25:42;;;;;;;5.50;3.60;;;;;;;9.08;67.08;99332.78;5032061;28;20021;-50
2021/04/04 04:28:08;;;;;;;6.72;3.63;;;;;;;9.13;67.20;99335.63;5031703;28;20091;-51
2021/04/04 04:30:34;;;;;;;4.53;2.60;;;;;;;8.90;67.20;99337.84;5033026;28;20033;-49
2021/04/04 04:33:02;;;;;;;3.22;2.35;;;;;;;8.79;66.80;99336.59;5031773;28;20036;-50
2021/04/04 04:35:29;;;;;;;7.68;4.93;;;;;;;8.95;66.89;99330.91;5032698;28;20037;-51
2021/04/04 04:37:54;;;;;;;10.65;6.85;;;;;;;8.65;66.81;99333.13;5031711;28;20032;-52
2021/04/04 04:40:20;;;;;;;5.20;3.20;;;;;;;9.07;65.98;99339.09;5031635;28;20029;-48
2021/04/04 04:42:49;;;;;;;3.88;2.58;;;;;;;9.18;64.98;99330.53;5033017;28;20031;-50
2021/04/04 04:45:17;;;;;;;3.70;2.65;;;;;;;9.04;65.43;99339.47;5031393;28;20033;-49
2021/04/04 04:47:42;;;;;;;9.98;5.57;;;;;;;9.25;64.77;99335.81;5032683;28;20034;-48
2021/04/04 04:50:09;;;;;;;7.60;4.28;;;;;;;9.07;64.82;99333.78;5031232;28;20028;-49
2021/04/04 04:52:34;;;;;;;4.82;3.30;;;;;;;9.17;64.51;99336.84;5031154;28;20106;-48
2021/04/04 04:55:00;;;;;;;5.22;3.08;;;;;;;9.03;64.24;99337.06;5032403;28;20478;-51
2021/04/04 04:57:25;;;;;;;4.38;2.90;;;;;;;9.29;64.04;99339.72;5014745;28;20025;-49
2021/04/04 04:59:51;;;;;;;3.53;2.83;;;;;;;9.36;64.26;99340.50;5031050;28;20492;-49
2021/04/04 05:02:16;;;;;;;3.90;2.75;;;;;;;9.37;63.79;99334.19;5014635;28;20099;-49
2021/04/04 05:04:45;;;;;;;5.57;3.00;;;;;;;9.29;64.22;99336.22;5027212;28;20507;-48
2021/04/04 05:07:10;;;;;;;3.80;2.78;;;;;;;9.45;63.65;99335.81;5048143;28;20041;-49
2021/04/04 05:09:36;;;;;;;4.30;3.10;;;;;;;9.23;63.14;99327.25;5034646;28;20076;-48
2021/04/04 05:12:02;;;;;;;3.70;2.75;;;;;;;9.33;63.04;99340.94;5046274;28;20044;-51
2021/04/04 05:14:28;;;;;;;4.60;3.15;;;;;;;9.27;63.72;99347.06;5040994;28;20045;-49
2021/04/04 05:16:54;;;;;;;4.07;3.10;;;;;;;9.36;62.46;99347.66;5023336;28;20043;-49
2021/04/04 05:19:19;;;;;;;4.30;3.42;;;;;;;9.48;62.72;99354.00;5041241;28;20021;-50
2021/04/04 05:21:44;;;;;;;8.55;5.45;;;;;;;9.34;64.47;99347.06;5023136;28;20036;-50
2021/04/04 05:24:11;;;;;;;9.63;5.72;;;;;;;10.22;63.86;99354.63;5042514;28;20492;-48
2021/04/04 05:26:41;;;;;;;5.85;3.45;;;;;;;10.73;66.09;99364.44;5042163;28;20458;-49
2021/04/04 05:29:09;;;;;;;4.43;3.00;;;;;;;11.39;65.96;99358.91;5039488;28;20052;-49
2021/04/04 05:31:46;;;;;;;5.10;3.28;;;;;;;11.61;58.82;99362.78;5040087;28;20021;-48
2021/04/04 05:34:13;;;;;;;5.20;3.45;;;;;;;11.07;57.41;99357.06;5041940;28;20037;-47
2021/04/04 05:37:02;;;;;;;5.35;3.42;;;;;;;10.93;57.58;99355.56;5046166;28;20037;-49
2021/04/04 05:39:29;;;;;;;5.25;3.67;;;;;;;11.06;57.92;99355.47;5050495;28;20156;-50
2021/04/04 05:41:59;;;;;;;4.82;3.40;;;;;;;10.82;58.15;99366.88;5051935;28;20365;-48
2021/04/04 05:44:39;;;;;;;5.38;3.55;;;;;;;10.45;58.64;99361.31;5051818;28;20021;-48
2021/04/04 05:47:07;;;;;;;;;;;;;;;10.87;57.87;99353.72;5052034;28;20031;-51
2021/04/04 05:50:00;;;;;;;5.32;3.72;;;;;;;10.42;59.11;99356.44;5049977;28;19909;-47
2021/04/04 05:52:31;;;;;;;5.10;3.55;;;;;;;10.37;58.87;99354.41;5050346;28;20480;-51
2021/04/04 05:55:06;;;;;;;5.43;3.67;;;;;;;10.48;58.32;99350.28;5051543;28;20033;-48
2021/04/04 05:57:43;;;;;;;7.53;4.00;;;;;;;10.16;59.05;99347.50;5051436;28;20504;-50
2021/04/04 06:00:09;;;;;;;6.20;4.45;;;;;;;10.42;58.46;99349.28;5050948;28;20029;-47
2021/04/04 06:03:11;;;;;;;6.10;3.97;;;;;;;10.51;58.47;99344.53;5048547;28;20507;-50
2021/04/04 06:06:01;;;;;;;7.13;4.20;;;;;;;10.41;58.42;99339.66;5029068;28;20033;-48
2021/04/04 06:08:56;;;;;;;6.03;3.92;;;;;;;10.76;57.55;99347.25;5028693;28;20374;-49
2021/04/04 06:11:46;;;;;;;6.78;4.47;;;;;;;10.73;57.46;99359.13;5030732;28;20025;-49
2021/04/04 06:14:24;;;;;;;9.98;5.80;;;;;;;10.79;57.43;99352.13;5029512;28;20025;-51
2021/04/04 06:16:52;;;;;;;6.78;4.03;;;;;;;10.31;58.09;99348.09;5030092;28;20037;-51
2021/04/04 06:19:36;;;;;;;7.22;4.65;;;;;;;10.84;57.34;99359.50;5030138;28;20029;-50
2021/04/04 06:22:05;;;;;;;7.32;4.30;;;;;;;11.31;56.99;99358.13;5030426;28;20115;-38
2021/04/04 06:24:48;;;;;;;9.63;5.10;;;;;;;11.25;56.08;99367.00;5030400;28;20469;-38
2021/04/04 06:27:36;;;;;;;8.02;5.18;;;;;;;11.43;55.86;99360.91;5030111;28;20264;-38
2021/04/04 06:30:01;;;;;;;7.57;4.28;;;;;;;10.94;56.45;99363.28;5030118;28;20161;-38
2021/04/04 06:32:37;;;;;;;7.60;4.35;;;;;;;11.01;56.46;99365.13;5030226;28;20504;-38
2021/04/04 06:35:32;;;;;;;6.88;4.97;;;;;;;11.18;55.99;99371.56;5012937;28;20047;-38
2021/04/04 06:38:28;;;;;;;7.13;4.97;;;;;;;10.95;56.75;99380.91;5030427;28;20079;-38
2021/04/04 06:41:21;;;;;;;8.68;5.00;;;;;;;10.62;57.74;99389.06;5030778;28;20051;-37
2021/04/04 06:43:58;;;;;;;9.43;4.70;;;;;;;11.08;56.84;99392.50;5005711;28;20045;-37
2021/04/04 06:46:43;;;;;;;7.55;4.88;;;;;;;10.49;57.89;99368.69;5028593;28;20075;-37
2021/04/04 06:49:26;;;;;;;7.18;4.90;;;;;;;11.29;56.99;99404.63;5030355;28;20025;-38
2021/04/04 06:52:16;;;;;;;8.90;4.72;;;;;;;10.81;57.36;99405.97;5030293;28;20465;-38
2021/04/04 06:54:59;;;;;;;7.63;4.63;;;;;;;10.89;57.02;99402.25;5029827;28;20055;-37
2021/04/04 06:57:43;;;;;;;8.68;5.30;;;;;;;11.01;56.97;99410.38;5030105;28;20108;-36
2021/04/04 07:00:13;;;;;;;9.10;5.50;;;;;;;11.48;56.50;99408.19;5029941;28;20457;-38
2021/04/04 07:03:04;;;;;;;7.10;5.00;;;;;;;11.61;56.00;99424.06;5029716;28;20531;-38
2021/04/04 07:05:30;;;;;;;;;;;;;;;11.23;55.97;99429.47;5030457;28;20033;-38
2021/04/04 07:08:17;;;;;;;38.15;22.02;;;;;;;11.28;56.34;99435.00;5028924;28;20421;-37
2021/04/04 07:10:59;;;;;;;8.73;4.78;;;;;;;11.19;56.32;99445.06;5028153;28;20105;-48
2021/04/04 07:13:40;;;;;;;6.80;4.63;;;;;;;11.16;56.43;99437.53;5029592;28;20121;-49
2021/04/04 07:16:26;;;;;;;8.27;4.78;;;;;;;11.53;55.94;99445.66;5029812;28;20174;-51
2021/04/04 07:19:16;;;;;;;7.82;5.40;;;;;;;11.98;54.95;99442.88;5029756;28;20037;-51
2021/04/04 07:22:00;;;;;;;7.70;5.18;;;;;;;11.44;55.05;99438.97;5029517;28;20052;-49
2021/04/04 07:24:40;;;;;;;10.23;5.43;;;;;;;11.64;55.45;99438.84;5029633;28;20529;-53
2021/04/04 07:27:32;;;;;;;7.72;5.50;;;;;;;11.35;55.86;99435.78;5033019;28;20032;-52
2021/04/04 07:30:42;;;;;;;8.63;5.32;;;;;;;11.73;54.50;99438.34;5039643;28;20028;-52
2021/04/04 07:33:28;;;;;;;8.35;5.70;;;;;;;11.20;56.18;99427.28;4990222;28;20046;-52
2021/04/04 07:36:13;;;;;;;12.20;5.78;;;;;;;11.90;54.66;99427.16;5006600;28;20046;-50
2021/04/04 07:38:55;;;;;;;9.60;5.38;;;;;;;11.89;54.40;99428.97;5007064;28;20120;-38
2021/04/04 07:41:28;;;;;;;8.18;5.68;;;;;;;11.52;54.66;99436.06;5044766;28;20025;-37
2021/04/04 07:44:25;;;;;;;8.57;5.40;;;;;;;11.65;54.90;99443.09;5047113;28;20091;-38
2021/04/04 07:47:11;;;;;;;11.57;6.30;;;;;;;11.83;54.23;99443.16;5040513;28;20045;-38
2021/04/04 07:49:44;;;;;;;8.45;5.47;;;;;;;11.80;54.36;99432.13;5049165;28;20366;-37
2021/04/04 07:52:15;;;;;;;13.40;7.70;;;;;;;11.97;54.63;99437.75;5048432;28;20082;-38
2021/04/04 07:55:01;;;;;;;12.45;8.13;;;;;;;12.37;53.62;99445.34;5046154;28;20045;-37
2021/04/04 07:57:27;;;;;;;10.43;6.10;;;;;;;12.05;54.10;99446.28;5027632;28;20491;-38
2021/04/04 07:59:56;;;;;;;35.78;20.73;;;;;;;12.81;51.74;99438.03;5033929;28;20117;-51
2021/04/04 08:02:54;;;;;;;14.00;8.10;;;;;;;13.25;51.81;99444.81;5026893;28;20457;-51
2021/04/04 08:05:21;;;;;;;9.27;6.00;;;;;;;13.02;51.42;99448.25;5036334;28;20038;-51
2021/04/04 08:08:03;;;;;;;9.88;6.35;;;;;;;12.77;52.35;99451.00;5036185;28;20025;-52
2021/04/04 08:10:35;;;;;;;9.57;6.30;;;;;;;12.02;52.95;99441.38;5020718;28;20124;-51
2021/04/04 08:13:32;;;;;;;8.75;6.25;;;;;;;12.04;52.86;99441.97;5043212;28;20310;-50
2021/04/04 08:15:58;;;;;;;9.30;6.03;;;;;;;11.80;53.72;99451.59;5046834;28;20122;-52
2021/04/04 08:18:23;;;;;;;10.70;6.53;;;;;;;11.93;53.19;99454.16;5048185;28;20520;-54
2021/04/04 08:20:51;;;;;;;10.52;6.13;;;;;;;11.95;53.53;99451.28;5048241;28;20020;-53
2021/04/04 08:23:30;;;;;;;11.82;7.35;;;;;;;12.27;53.17;99448.53;5048527;28;20025;-52
2021/04/04 08:26:04;;;;;;;15.60;7.30;;;;;;;12.27;52.82;99453.84;5047914;28;20040;-51
2021/04/04 08:28:53;;;;;;;12.38;6.65;;;;;;;11.77;54.01;99452.03;5022098;28;20040;-52
2021/04/04 08:31:26;;;;;;;9.52;6.43;;;;;;;12.18;52.94;99458.66;5037968;28;20025;-52
2021/04/04 08:34:11;;;;;;;12.93;6.93;;;;;;;12.12;53.76;99456.88;5029333;28;20108;-51
2021/04/04 08:36:38;;;;;;;14.20;7.05;;;;;;;12.29;53.85;99457.13;5031353;28;20124;-52
2021/04/04 08:39:04;;;;;;;12.32;6.72;;;;;;;12.12;53.68;99462.22;5034612;28;20099;-53
2021/04/04 08:41:34;;;;;;;12.98;6.60;;;;;;;12.26;52.93;99460.22;5031194;28;20033;-52
2021/04/04 08:44:06;;;;;;;10.32;6.47;;;;;;;12.35;52.66;99455.41;5028413;28;20025;-52
2021/04/04 08:46:43;;;;;;;11.75;6.30;;;;;;;12.84;51.70;99454.41;5012700;28;20037;-51
2021/04/04 08:49:08;;;;;;;10.50;7.20;;;;;;;13.19;51.17;99451.06;5031054;28;20040;-51
2021/04/04 08:51:37;;;;;;;11.00;7.18;;;;;;;13.25;50.68;99455.50;5032987;28;20422;-50
2021/04/04 08:54:02;;;;;;;16.25;9.13;;;;;;;13.48;50.71;99456.66;5033272;28;20036;-50
2021/04/04 08:56:29;;;;;;;29.70;17.42;;;;;;;13.32;50.64;99462.66;5033668;28;20032;-50
2021/04/04 08:58:55;;;;;;;28.23;16.75;;;;;;;13.29;49.88;99459.34;5048265;28;20047;-52
2021/04/04 09:01:27;;;;;;;47.15;25.63;;;;;;;13.15;50.75;99452.56;5032726;28;20029;-50
2021/04/04 09:03:56;;;;;;;9.60;6.28;;;;;;;13.30;49.72;99463.66;5033876;28;20041;-50
2021/04/04 09:06:22;;;;;;;9.93;6.78;;;;;;;12.97;51.82;99463.31;5033086;28;20040;-51
2021/04/04 09:08:47;;;;;;;11.00;6.60;;;;;;;12.96;50.26;99457.13;5050820;28;20057;-49
2021/04/04 09:11:13;;;;;;;11.07;7.55;;;;;;;13.35;49.81;99460.34;5033089;28;20024;-48
2021/04/04 09:13:38;;;;;;;10.40;6.75;;;;;;;13.61;49.30;99447.59;5032729;28;20036;-51
2021/04/04 09:16:12;;;;;;;12.75;7.07;;;;;;;13.48;49.82;99448.63;5049430;28;20441;-51
2021/04/04 09:18:45;;;;;;;12.35;7.15;;;;;;;13.59;49.99;99447.81;5050567;28;20025;-50
2021/04/04 09:21:10;;;;;;;15.23;9.23;;;;;;;13.67;48.92;99452.84;5032779;28;20472;-48
2021/04/04 09:23:36;;;;;;;18.48;11.07;;;;;;;13.81;48.73;99448.09;5050711;28;20473;-49
2021/04/04 09:26:09;;;;;;;11.85;6.72;;;;;;;13.41;48.98;99448.72;5049405;28;20067;-49
2021/04/04 09:28:36;;;;;;;13.25;8.70;;;;;;;13.69;49.13;99455.28;5050636;28;20032;-48
2021/04/04 09:31:02;;;;;;;12.07;8.18;;;;;;;13.79;48.67;99449.38;5033000;28;20063;-49
2021/04/04 09:33:29;;;;;;;11.63;7.57;;;;;;;14.02;48.24;99453.91;5041749;28;20036;-49
2021/04/04 09:35:58;;;;;;;9.18;6.88;;;;;;;13.55;49.67;99465.38;5049280;28;20029;-50
2021/04/04 09:38:40;;;;;;;9.75;6.63;;;;;;;13.54;49.99;99469.09;5049265;28;20024;-49
2021/04/04 09:41:07;;;;;;;10.15;6.20;;;;;;;13.59;49.83;99463.03;5047829;28;20110;-48
2021/04/04 09:44:02;;;;;;;11.90;7.55;;;;;;;13.65;50.15;99462.97;5050131;28;20312;-49
2021/04/04 09:46:27;;;;;;;12.82;6.68;;;;;;;13.33;50.14;99457.06;5049233;28;20106;-50
2021/04/04 09:48:53;;;;;;;10.23;6.57;;;;;;;13.57;49.25;99452.56;5047397;28;20028;-49
2021/04/04 09:51:18;;;;;;;25.73;15.20;;;;;;;13.61;50.26;99469.81;5047817;28;20385;-49
2021/04/04 09:53:48;;;;;;;9.95;7.05;;;;;;;13.80;51.12;99472.38;5047525;28;20043;-51
2021/04/04 09:56:18;;;;;;;9.57;6.90;;;;;;;14.17;50.66;99472.97;5049474;28;20075;-50
2021/04/04 09:58:46;;;;;;;11.10;7.00;;;;;;;14.22;50.61;99472.25;5050702;28;20029;-49
2021/04/04 10:01:15;;;;;;;11.48;7.50;;;;;;;14.51;49.83;99467.81;5045105;28;20048;-51
2021/04/04 10:03:41;;;;;;;;;;;;;;;14.58;49.80;99460.50;5044192;28;20131;-52
2021/04/04 10:06:12;;;;;;;14.48;9.90;;;;;;;14.33;50.35;99457.25;5029628;28;19928;-50
2021/04/04 10:08:38;;;;;;;12.90;9.43;;;;;;;13.82;52.29;99468.44;5032890;28;20051;-48
2021/04/04 10:11:13;;;;;;;17.63;11.85;;;;;;;14.39;50.51;99461.66;5033112;28;20112;-50
2021/04/04 10:13:39;;;;;;;13.13;8.23;;;;;;;14.41;50.13;99471.09;5044078;28;20098;-52
2021/04/04 10:16:05;;;;;;;13.02;8.45;;;;;;;14.40;51.12;99474.00;5040881;28;20493;-52
2021/04/04 10:18:30;;;;;;;14.23;9.35;;;;;;;14.21;52.05;99481.34;5032903;28;20067;-51
2021/04/04 10:20:56;;;;;;;17.20;11.65;;;;;;;14.24;51.05;99472.84;5070241;28;20028;-49
2021/04/04 10:23:29;;;;;;;12.48;8.25;;;;;;;14.05;51.09;99458.78;5070666;28;20103;-49
2021/04/04 10:26:05;;;;;;;16.40;8.90;;;;;;;14.07;51.27;99457.50;5070472;28;20029;-50
2021/04/04 10:29:06;;;;;;;11.60;7.50;;;;;;;14.28;50.16;99471.34;5070273;28;20028;-52
2021/04/04 10:31:46;;;;;;;22.23;13.43;;;;;;;14.04;53.47;99471.34;4996868;28;20407;-51
2021/04/04 10:34:11;;;;;;;13.47;8.63;;;;;;;14.17;50.48;99466.81;5026099;28;20049;-53
2021/04/04 10:36:37;;;;;;;15.57;10.48;;;;;;;14.12;52.43;99469.38;5049578;28;20275;-50
2021/04/04 10:39:02;;;;;;;14.00;8.70;;;;;;;13.72;53.31;99462.84;5056608;28;20480;-50
2021/04/04 10:41:37;;;;;;;12.95;8.23;;;;;;;13.49;52.91;99467.09;5055042;28;20439;-52
2021/04/04 10:44:05;;;;;;;12.63;7.45;;;;;;;13.41;52.10;99459.41;5049550;28;20028;-53
2021/04/04 10:46:32;;;;;;;12.55;7.72;;;;;;;13.61;52.63;99467.13;5049552;28;20035;-52
2021/04/04 10:48:59;;;;;;;10.68;6.75;;;;;;;13.60;51.02;99467.38;5049867;28;20029;-52
2021/04/04 10:51:24;;;;;;;10.40;7.50;;;;;;;13.61;52.34;99472.50;5048953;28;20029;-50
2021/04/04 10:53:50;;;;;;;10.85;7.45;;;;;;;13.13;55.29;99470.69;5049874;28;20083;-50
2021/04/04 10:56:16;;;;;;;11.90;7.18;;;;;;;12.98;53.72;99465.72;5048676;28;20056;-52
2021/04/04 10:58:42;;;;;;;14.30;8.27;;;;;;;12.61;54.30;99467.66;5044178;28;20030;-52
2021/04/04 11:01:10;;;;;;;9.90;6.38;;;;;;;12.51;51.19;99462.84;5048690;28;20025;-51
2021/04/04 11:03:35;;;;;;;10.00;6.30;;;;;;;12.58;53.57;99457.41;5049875;28;20052;-52
2021/04/04 11:06:01;;;;;;;8.75;6.40;;;;;;;12.74;52.15;99450.63;5049940;28;20040;-52
2021/04/04 11:08:26;;;;;;;11.57;7.30;;;;;;;12.78;53.75;99451.84;5049366;28;20064;-49
2021/04/04 11:10:52;;;;;;;10.02;5.60;;;;;;;14.13;64.33;99465.66;5050163;28;20164;-52
2021/04/04 11:13:18;;;;;;;9.73;6.85;;;;;;;14.46;51.74;99465.84;5049831;28;20112;-53
2021/04/04 11:15:53;;;;;;;10.60;5.70;;;;;;;14.63;61.00;99468.63;5049208;28;20082;-52
2021/04/04 11:18:23;;;;;;;18.90;6.25;;;;;;;15.99;55.05;99464.38;5048886;28;20330;-51
2021/04/04 11:20:52;;;;;;;14.77;5.97;;;;;;;16.93;51.54;99459.16;5047496;28;20021;-49
2021/04/04 11:23:18;;;;;;;11.80;6.55;;;;;;;17.61;46.62;99456.84;5031094;28;20075;-52
2021/04/04 11:25:43;;;;;;;9.40;6.60;;;;;;;16.89;45.76;99448.09;5030005;28;20508;-50
2021/04/04 11:28:16;;;;;;;11.65;6.95;;;;;;;15.82;49.15;99448.28;5047252;28;20035;-51
2021/04/04 11:30:42;;;;;;;12.30;7.07;;;;;;;15.55;48.79;99450.75;5047473;28;20021;-53
2021/04/04 11:33:28;;;;;;;9.75;6.63;;;;;;;14.66;50.96;99444.06;5049003;28;20106;-52
2021/04/04 11:36:06;;;;;;;13.45;6.68;;;;;;;13.98;52.61;99432.16;5048757;28;20037;-53
2021/04/04 11:39:06;;;;;;;10.55;7.00;;;;;;;13.56;53.64;99440.28;5049734;28;20029;-49
2021/04/04 11:41:32;;;;;;;11.68;7.05;;;;;;;13.37;54.02;99428.03;5046505;28;20095;-49
2021/04/04 11:44:18;;;;;;;12.20;7.97;;;;;;;13.38;54.95;99441.16;5048216;28;20477;-50
2021/04/04 11:46:51;;;;;;;9.85;7.03;;;;;;;12.74;55.60;99442.63;5049086;28;20572;-49
2021/04/04 11:49:37;;;;;;;10.43;6.47;;;;;;;12.70;57.04;99453.78;5049129;28;20109;-52
2021/04/04 11:52:09;;;;;;;10.52;6.70;;;;;;;12.84;56.65;99453.59;5037575;28;20033;-53